createdAt,value
2023-05-08T00:01:26.410Z,1.20
2023-05-08T00:03:53.288Z,1.48
2023-05-08T00:06:20.300Z,1.30
2023-05-08T00:08:46.907Z,1.20
2023-05-08T00:11:13.789Z,1.48
2023-05-08T00:13:41.497Z,1.42
2023-05-08T00:16:13.075Z,1.40
2023-05-08T00:18:40.257Z,1.30
2023-05-08T00:21:07.224Z,1.40
2023-05-08T00:23:34.307Z,1.20
2023-05-08T00:26:01.011Z,1.40
2023-05-08T00:28:27.885Z,1.10
2023-05-08T00:30:54.638Z,1.27
2023-05-08T00:33:21.447Z,1.07
2023-05-08T00:35:48.157Z,1.45
2023-05-08T00:38:14.822Z,1.65
2023-05-08T00:40:41.621Z,1.40
2023-05-08T00:43:09.422Z,1.73
2023-05-08T00:45:37.886Z,1.20
2023-05-08T00:48:05.387Z,1.27
2023-05-08T00:50:32.841Z,1.58
2023-05-08T00:53:02.888Z,1.38
2023-05-08T00:55:30.915Z,1.40
2023-05-08T00:57:57.596Z,1.40
2023-05-08T01:00:24.935Z,1.30
2023-05-08T01:02:51.989Z,1.40
2023-05-08T01:05:18.946Z,1.20
2023-05-08T01:07:46.227Z,1.50
2023-05-08T01:10:13.186Z,1.40
2023-05-08T01:13:09.261Z,1.20
2023-05-08T01:15:46.974Z,1.30
2023-05-08T01:18:23.177Z,1.60
2023-05-08T01:21:13.545Z,1.20
2023-05-08T01:24:11.263Z,1.30
2023-05-08T01:26:38.109Z,1.30
2023-05-08T01:29:28.266Z,1.45
2023-05-08T01:32:23.641Z,1.25
2023-05-08T01:35:24.115Z,1.27
2023-05-08T01:38:10.559Z,1.37
2023-05-08T01:40:44.885Z,1.55
2023-05-08T01:43:23.202Z,1.50
2023-05-08T01:45:52.947Z,1.30
2023-05-08T01:48:33.067Z,1.30
2023-05-08T01:51:17.094Z,1.50
2023-05-08T01:53:47.705Z,1.40
2023-05-08T01:56:19.017Z,1.80
2023-05-08T01:58:47.906Z,1.40
2023-05-08T02:01:18.041Z,1.35
2023-05-08T02:03:46.123Z,1.67
2023-05-08T02:06:16.851Z,1.42
2023-05-08T02:08:46.367Z,1.48
2023-05-08T02:11:15.036Z,1.73
2023-05-08T02:13:44.652Z,1.48
2023-05-08T02:16:12.989Z,1.40
2023-05-08T02:18:46.924Z,1.50
2023-05-08T02:21:15.460Z,1.63
2023-05-08T02:23:44.669Z,1.35
2023-05-08T02:26:14.032Z,1.67
2023-05-08T02:28:41.909Z,1.40
2023-05-08T02:31:13.234Z,1.40
2023-05-08T02:33:42.027Z,1.70
2023-05-08T02:36:10.901Z,1.60
2023-05-08T02:38:39.846Z,1.67
2023-05-08T02:41:07.941Z,1.50
2023-05-08T02:43:35.698Z,1.40
2023-05-08T02:46:13.463Z,1.38
2023-05-08T02:49:03.557Z,1.20
2023-05-08T02:51:47.094Z,1.60
2023-05-08T02:54:25.164Z,1.83
2023-05-08T02:57:27.420Z,1.40
2023-05-08T03:00:05.135Z,1.58
2023-05-08T03:02:38.134Z,1.40
2023-05-08T03:05:30.608Z,1.30
2023-05-08T03:08:02.893Z,1.60
2023-05-08T03:10:33.577Z,1.42
2023-05-08T03:13:03.780Z,1.70
2023-05-08T03:15:41.895Z,1.50
2023-05-08T03:18:14.141Z,1.80
2023-05-08T03:20:45.613Z,1.53
2023-05-08T03:23:18.205Z,1.90
2023-05-08T03:25:44.982Z,1.50
2023-05-08T03:28:14.023Z,1.40
2023-05-08T03:30:41.881Z,1.70
2023-05-08T03:33:12.674Z,1.60
2023-05-08T03:35:39.973Z,1.50
2023-05-08T03:38:08.676Z,2.38
2023-05-08T03:40:38.952Z,1.92
2023-05-08T03:43:07.960Z,1.70
2023-05-08T03:45:37.024Z,1.70
2023-05-08T03:48:05.971Z,1.67
2023-05-08T03:50:36.891Z,1.92
2023-05-08T03:53:05.437Z,1.55
2023-05-08T03:55:32.926Z,1.67
2023-05-08T03:58:19.576Z,1.67
2023-05-08T04:01:11.910Z,1.60
2023-05-08T04:03:42.486Z,1.60
2023-05-08T04:06:22.925Z,1.70
2023-05-08T04:09:00.484Z,1.70
2023-05-08T04:12:18.653Z,2.37
2023-05-08T04:14:56.259Z,1.40
2023-05-08T04:17:42.131Z,1.60
2023-05-08T04:20:13.788Z,1.60
2023-05-08T04:22:42.427Z,1.58
2023-05-08T04:25:12.632Z,1.90
2023-05-08T04:27:39.730Z,1.55
2023-05-08T04:30:09.357Z,1.65
2023-05-08T04:32:40.265Z,2.00
2023-05-08T04:35:08.563Z,1.88
2023-05-08T04:37:35.491Z,1.60
2023-05-08T04:40:04.940Z,1.58
2023-05-08T04:42:36.486Z,1.63
2023-05-08T04:45:04.037Z,1.40
2023-05-08T04:47:31.436Z,1.63
2023-05-08T04:50:00.016Z,1.70
2023-05-08T04:52:29.324Z,1.40
2023-05-08T04:54:55.944Z,1.45
2023-05-08T04:57:22.671Z,1.58
2023-05-08T04:59:49.319Z,1.63
2023-05-08T05:02:16.372Z,1.50
2023-05-08T05:04:43.374Z,1.27
2023-05-08T05:07:10.682Z,1.70
2023-05-08T05:09:39.259Z,1.52
2023-05-08T05:12:07.079Z,1.70
2023-05-08T05:14:34.376Z,1.50
2023-05-08T05:17:01.403Z,1.38
2023-05-08T05:19:28.146Z,1.58
2023-05-08T05:21:55.352Z,1.75
2023-05-08T05:24:22.137Z,1.58
2023-05-08T05:26:49.043Z,1.63
2023-05-08T05:29:15.999Z,1.50
2023-05-08T05:31:43.171Z,1.55
2023-05-08T05:34:09.904Z,1.67
2023-05-08T05:36:36.907Z,1.85
2023-05-08T05:39:03.727Z,2.10
2023-05-08T05:41:31.210Z,1.70
2023-05-08T05:43:58.250Z,1.63
2023-05-08T05:46:32.424Z,1.67
2023-05-08T05:49:01.420Z,1.90
2023-05-08T05:51:29.286Z,1.67
2023-05-08T05:53:57.155Z,1.85
2023-05-08T05:56:24.890Z,1.77
2023-05-08T05:58:51.757Z,1.50
2023-05-08T06:01:18.410Z,1.77
2023-05-08T06:03:45.265Z,1.70
2023-05-08T06:06:12.536Z,1.77
2023-05-08T06:08:39.464Z,1.52
2023-05-08T06:11:06.128Z,1.70
2023-05-08T06:13:33.150Z,1.67
2023-05-08T06:16:00.510Z,1.50
2023-05-08T06:18:27.245Z,1.60
2023-05-08T06:20:57.950Z,1.80
2023-05-08T06:23:24.933Z,1.73
2023-05-08T06:25:51.618Z,1.90
2023-05-08T06:28:18.876Z,1.57
2023-05-08T06:30:45.545Z,2.00
2023-05-08T06:33:12.498Z,1.65
2023-05-08T06:35:39.235Z,1.95
2023-05-08T06:38:06.326Z,1.80
2023-05-08T06:40:32.904Z,2.33
2023-05-08T06:42:59.617Z,2.33
2023-05-08T06:45:26.200Z,2.50
2023-05-08T06:47:53.014Z,1.70
2023-05-08T06:50:19.838Z,2.30
2023-05-08T06:52:46.484Z,2.20
2023-05-08T06:55:13.332Z,1.90
2023-05-08T06:57:40.111Z,1.90
2023-05-08T07:00:07.530Z,2.30
2023-05-08T07:02:34.346Z,2.17
2023-05-08T07:05:01.242Z,2.00
2023-05-08T07:07:28.075Z,2.10
2023-05-08T07:09:54.775Z,2.22
2023-05-08T07:12:21.474Z,1.92
2023-05-08T07:14:48.089Z,2.58
2023-05-08T07:17:14.846Z,2.30
2023-05-08T07:19:41.465Z,2.97
2023-05-08T07:22:08.219Z,2.45
2023-05-08T07:24:34.956Z,1.75
2023-05-08T07:27:01.871Z,2.50
2023-05-08T07:29:28.582Z,2.30
2023-05-08T07:31:55.605Z,2.10
2023-05-08T07:34:22.326Z,2.13
2023-05-08T07:36:49.046Z,1.90
2023-05-08T07:39:15.705Z,2.00
2023-05-08T07:41:42.473Z,2.10
2023-05-08T07:44:09.532Z,1.83
2023-05-08T07:46:37.128Z,2.10
2023-05-08T07:49:03.900Z,2.03
2023-05-08T07:51:30.593Z,2.00
2023-05-08T07:53:57.295Z,2.10
2023-05-08T07:56:24.329Z,1.75
2023-05-08T07:58:50.958Z,1.80
2023-05-08T08:01:18.282Z,1.88
2023-05-08T08:03:46.468Z,1.73
2023-05-08T08:06:13.571Z,2.00
2023-05-08T08:08:40.515Z,1.80
2023-05-08T08:11:07.578Z,2.10
2023-05-08T08:13:34.336Z,2.05
2023-05-08T08:16:03.936Z,2.40
2023-05-08T08:18:33.708Z,2.00
2023-05-08T08:21:00.430Z,2.17
2023-05-08T08:23:27.382Z,2.00
2023-05-08T08:25:54.394Z,2.35
2023-05-08T08:28:21.225Z,2.58
2023-05-08T08:30:48.238Z,2.23
2023-05-08T08:33:16.316Z,2.45
2023-05-08T08:35:44.999Z,2.35
2023-05-08T08:38:11.674Z,2.10
2023-05-08T08:40:42.674Z,2.33
2023-05-08T08:43:10.046Z,2.20
2023-05-08T08:45:37.620Z,2.40
2023-05-08T08:48:05.030Z,2.22
2023-05-08T08:50:32.972Z,2.50
2023-05-08T08:53:25.823Z,2.30
2023-05-08T08:55:55.933Z,2.20
2023-05-08T08:58:38.131Z,2.08
2023-05-08T09:01:08.120Z,2.35
2023-05-08T09:03:35.155Z,2.60
2023-05-08T09:06:02.738Z,2.60
2023-05-08T09:08:29.934Z,2.97
2023-05-08T09:10:56.612Z,2.50
2023-05-08T09:13:23.358Z,2.85
2023-05-08T09:15:50.755Z,2.80
2023-05-08T09:18:17.655Z,2.92
2023-05-08T09:20:44.765Z,2.30
2023-05-08T09:23:11.590Z,2.38
2023-05-08T09:25:45.891Z,2.50
2023-05-08T09:28:17.207Z,2.80
2023-05-08T09:30:58.053Z,2.58
2023-05-08T09:33:29.715Z,3.40
2023-05-08T09:35:57.062Z,2.78
2023-05-08T09:38:41.928Z,2.65
2023-05-08T09:41:16.476Z,2.53
2023-05-08T09:43:44.915Z,3.20
2023-05-08T09:46:24.667Z,2.47
2023-05-08T09:48:56.764Z,2.72
2023-05-08T09:51:24.798Z,2.78
2023-05-08T09:53:53.284Z,3.03
2023-05-08T09:56:37.384Z,2.75
2023-05-08T09:59:06.333Z,2.90
2023-05-08T10:01:34.254Z,3.22
2023-05-08T10:04:01.919Z,3.28
2023-05-08T10:06:29.428Z,3.30
2023-05-08T10:09:22.430Z,2.78
2023-05-08T10:11:54.547Z,2.47
2023-05-08T10:14:22.886Z,2.88
2023-05-08T10:16:54.318Z,3.10
2023-05-08T10:19:23.027Z,2.70
2023-05-08T10:21:54.143Z,2.72
2023-05-08T10:24:24.127Z,3.80
2023-05-08T10:27:21.017Z,4.20
2023-05-08T10:29:56.273Z,2.90
2023-05-08T10:32:24.557Z,3.10
2023-05-08T10:35:00.285Z,3.90
2023-05-08T10:37:30.026Z,4.20
2023-05-08T10:39:58.020Z,3.22
2023-05-08T10:42:26.286Z,2.67
2023-05-08T10:44:53.533Z,2.88
2023-05-08T10:48:03.561Z,2.78
2023-05-08T10:50:57.071Z,2.70
2023-05-08T10:53:36.198Z,2.75
2023-05-08T10:56:03.554Z,3.28
2023-05-08T10:58:31.093Z,2.97
2023-05-08T11:00:59.504Z,3.13
2023-05-08T11:03:37.921Z,2.47
2023-05-08T11:06:04.881Z,2.42
2023-05-08T11:08:32.623Z,2.42
2023-05-08T11:11:02.117Z,2.80
2023-05-08T11:13:30.165Z,2.58
2023-05-08T11:15:56.902Z,2.50
2023-05-08T11:18:26.331Z,2.30
2023-05-08T11:20:59.473Z,2.33
2023-05-08T11:23:31.201Z,2.10
2023-05-08T11:26:04.137Z,2.28
2023-05-08T11:28:38.765Z,2.27
2023-05-08T11:31:09.280Z,2.45
2023-05-08T11:33:41.186Z,2.60
2023-05-08T11:36:07.786Z,2.40
2023-05-08T11:38:36.447Z,2.25
2023-05-08T11:41:09.952Z,2.23
2023-05-08T11:43:59.071Z,2.15
2023-05-08T11:46:33.926Z,2.80
2023-05-08T11:49:01.379Z,2.30
2023-05-08T11:51:33.906Z,2.30
2023-05-08T11:54:01.124Z,2.33
2023-05-08T11:56:27.917Z,2.55
2023-05-08T11:59:11.267Z,2.13
2023-05-08T12:01:37.981Z,2.10
2023-05-08T12:06:35.319Z,2.20
2023-05-08T12:09:04.860Z,2.25
2023-05-08T12:11:32.169Z,2.15
2023-05-08T12:13:58.838Z,1.60
2023-05-08T12:16:26.212Z,2.38
2023-05-08T12:18:56.058Z,1.80
2023-05-08T12:21:22.848Z,1.70
2023-05-08T12:23:49.855Z,1.75
2023-05-08T12:26:17.267Z,1.90
2023-05-08T12:28:48.228Z,2.00
2023-05-08T12:31:15.129Z,2.13
2023-05-08T12:33:42.502Z,1.90
2023-05-08T12:36:09.233Z,2.00
2023-05-08T12:38:35.901Z,2.30
2023-05-08T12:41:04.483Z,2.00
2023-05-08T12:43:32.102Z,1.67
2023-05-08T12:45:58.871Z,1.88
2023-05-08T12:48:26.701Z,1.73
2023-05-08T12:50:53.438Z,1.85
2023-05-08T12:53:23.110Z,2.38
2023-05-08T12:55:58.063Z,1.80
2023-05-08T12:58:27.187Z,1.80
2023-05-08T13:01:03.320Z,2.22
2023-05-08T13:03:30.986Z,1.95
2023-05-08T13:05:58.738Z,2.70
2023-05-08T13:08:32.105Z,2.10
2023-05-08T13:10:59.750Z,2.15
2023-05-08T13:13:29.538Z,2.60
2023-05-08T13:15:56.758Z,2.55
2023-05-08T13:18:30.561Z,2.72
2023-05-08T13:20:57.721Z,2.30
2023-05-08T13:23:24.787Z,2.20
2023-05-08T13:25:51.667Z,2.33
2023-05-08T13:28:18.277Z,1.98
2023-05-08T13:30:44.906Z,2.75
2023-05-08T13:33:11.714Z,2.43
2023-05-08T13:35:38.514Z,2.70
2023-05-08T13:38:06.189Z,2.25
2023-05-08T13:40:33.148Z,2.47
2023-05-08T13:42:59.984Z,2.80
2023-05-08T13:45:26.788Z,2.70
2023-05-08T13:47:54.325Z,2.63
2023-05-08T13:50:22.557Z,3.00
2023-05-08T13:52:51.662Z,2.40
2023-05-08T13:55:22.798Z,2.65
2023-05-08T13:57:49.791Z,2.33
2023-05-08T14:00:20.337Z,2.45
2023-05-08T14:02:47.771Z,2.72
2023-05-08T14:05:15.808Z,2.70
2023-05-08T14:07:43.744Z,2.70
2023-05-08T14:10:10.921Z,2.20
2023-05-08T14:12:41.151Z,2.50
2023-05-08T14:15:08.604Z,2.42
2023-05-08T14:17:35.357Z,2.00
2023-05-08T14:20:02.028Z,2.55
2023-05-08T14:22:30.011Z,2.40
2023-05-08T14:24:56.645Z,2.30
2023-05-08T14:27:23.389Z,2.35
2023-05-08T14:29:50.043Z,2.28
2023-05-08T14:32:16.710Z,2.40
2023-05-08T14:34:43.402Z,2.30
2023-05-08T14:37:10.370Z,2.42
2023-05-08T14:39:37.460Z,2.20
2023-05-08T14:44:34.109Z,2.60
2023-05-08T14:47:00.871Z,2.27
2023-05-08T14:49:36.829Z,2.75
2023-05-08T14:52:05.709Z,2.67
2023-05-08T14:54:32.862Z,2.17
2023-05-08T14:56:59.875Z,2.13
2023-05-08T14:59:26.587Z,2.53
2023-05-08T15:01:53.377Z,2.40
2023-05-08T15:04:20.788Z,2.22
2023-05-08T15:06:47.612Z,2.25
2023-05-08T15:09:16.324Z,2.97
2023-05-08T15:11:43.421Z,2.30
2023-05-08T15:14:10.155Z,2.63
2023-05-08T15:16:40.108Z,2.90
2023-05-08T15:19:07.012Z,2.83
2023-05-08T15:21:33.638Z,2.50
2023-05-08T15:24:00.324Z,2.30
2023-05-08T15:26:26.923Z,2.22
2023-05-08T15:28:53.624Z,2.33
2023-05-08T15:31:20.203Z,2.60
2023-05-08T15:33:48.051Z,2.50
2023-05-08T15:36:14.959Z,2.40
2023-05-08T15:38:41.964Z,2.50
2023-05-08T15:41:14.801Z,2.67
2023-05-08T15:43:42.284Z,2.65
2023-05-08T15:46:09.178Z,2.60
2023-05-08T15:48:36.173Z,2.70
2023-05-08T15:51:02.875Z,2.78
2023-05-08T15:53:29.632Z,2.65
2023-05-08T15:55:58.806Z,2.65
2023-05-08T15:58:25.556Z,2.80
2023-05-08T16:00:52.747Z,2.60
2023-05-08T16:03:19.597Z,2.90
2023-05-08T16:05:46.419Z,2.90
2023-05-08T16:08:14.530Z,2.90
2023-05-08T16:10:42.009Z,2.90
2023-05-08T16:13:09.504Z,3.40
2023-05-08T16:15:36.376Z,2.90
2023-05-08T16:18:03.919Z,2.70
2023-05-08T16:20:35.733Z,2.92
2023-05-08T16:23:03.021Z,2.88
2023-05-08T16:25:30.202Z,3.00
2023-05-08T16:27:57.001Z,3.03
2023-05-08T16:30:23.606Z,3.10
2023-05-08T16:32:50.493Z,2.83
2023-05-08T16:35:17.790Z,2.78
2023-05-08T16:37:44.517Z,3.23
2023-05-08T16:40:11.737Z,2.88
2023-05-08T16:42:38.543Z,3.20
2023-05-08T16:45:05.750Z,3.20
2023-05-08T16:47:33.216Z,3.05
2023-05-08T16:50:00.300Z,3.37
2023-05-08T16:52:27.136Z,2.53
2023-05-08T16:54:53.749Z,2.92
2023-05-08T16:57:20.569Z,2.72
2023-05-08T16:59:47.238Z,2.70
2023-05-08T17:02:18.723Z,2.50
2023-05-08T17:04:49.191Z,2.50
2023-05-08T17:07:16.139Z,2.30
2023-05-08T17:09:43.041Z,2.35
2023-05-08T17:12:09.765Z,2.30
2023-05-08T17:14:39.230Z,1.63
2023-05-08T17:17:06.479Z,2.05
2023-05-08T17:19:33.356Z,1.63
2023-05-08T17:22:00.280Z,1.70
2023-05-08T17:24:27.296Z,1.70
2023-05-08T17:26:54.086Z,1.87
2023-05-08T17:29:20.727Z,1.27
2023-05-08T17:31:47.505Z,1.60
2023-05-08T17:34:14.180Z,1.83
2023-05-08T17:36:41.224Z,1.63
2023-05-08T17:39:08.042Z,2.03
2023-05-08T17:41:34.833Z,2.00
2023-05-08T17:44:01.444Z,2.25
2023-05-08T17:46:28.089Z,1.92
2023-05-08T17:48:54.653Z,2.08
2023-05-08T17:51:21.302Z,2.10
2023-05-08T17:53:47.992Z,2.08
2023-05-08T17:56:16.330Z,2.70
2023-05-08T17:58:43.548Z,2.20
2023-05-08T18:01:10.278Z,2.65
2023-05-08T18:03:37.095Z,2.87
2023-05-08T18:06:03.882Z,2.35
2023-05-08T18:08:30.569Z,2.50
2023-05-08T18:10:57.160Z,2.60
2023-05-08T18:13:23.891Z,2.92
2023-05-08T18:15:50.854Z,2.40
2023-05-08T18:18:17.461Z,2.10
2023-05-08T18:20:44.081Z,2.15
2023-05-08T18:23:10.849Z,2.58
2023-05-08T18:25:37.520Z,2.75
2023-05-08T18:28:04.425Z,2.90
2023-05-08T18:30:31.646Z,2.70
2023-05-08T18:32:58.335Z,2.58
2023-05-08T18:35:24.971Z,2.40
2023-05-08T18:37:51.701Z,2.35
2023-05-08T18:40:18.447Z,2.77
2023-05-08T18:42:45.164Z,2.45
2023-05-08T18:45:12.192Z,2.90
2023-05-08T18:47:39.051Z,3.00
2023-05-08T18:50:06.310Z,2.58
2023-05-08T18:52:32.923Z,2.50
2023-05-08T18:54:59.767Z,3.00
2023-05-08T18:57:26.500Z,3.40
2023-05-08T18:59:53.223Z,3.15
2023-05-08T19:02:20.150Z,2.85
2023-05-08T19:04:46.874Z,2.70
2023-05-08T19:07:13.596Z,2.60
2023-05-08T19:09:40.265Z,3.25
2023-05-08T19:12:07.006Z,3.88
2023-05-08T19:14:33.724Z,3.38
2023-05-08T19:17:03.521Z,2.93
2023-05-08T19:19:30.760Z,2.70
2023-05-08T19:21:57.597Z,3.05
2023-05-08T19:24:26.385Z,3.42
2023-05-08T19:26:53.087Z,3.13
2023-05-08T19:29:19.714Z,3.10
2023-05-08T19:31:46.574Z,2.92
2023-05-08T19:34:13.309Z,3.50
2023-05-08T19:36:39.937Z,3.40
2023-05-08T19:39:06.710Z,3.00
2023-05-08T19:41:33.520Z,3.20
2023-05-08T19:44:00.351Z,2.70
2023-05-08T19:46:27.123Z,3.35
2023-05-08T19:48:53.746Z,2.95
2023-05-08T19:51:20.781Z,2.78
2023-05-08T19:53:47.455Z,3.30
2023-05-08T19:56:14.130Z,3.60
2023-05-08T19:58:40.829Z,3.17
2023-05-08T20:01:07.590Z,3.65
2023-05-08T20:03:34.455Z,3.47
2023-05-08T20:06:01.217Z,3.63
2023-05-08T20:08:27.849Z,3.45
2023-05-08T20:10:54.658Z,3.40
2023-05-08T20:13:21.656Z,4.00
2023-05-08T20:15:48.486Z,3.97
2023-05-08T20:18:15.209Z,3.47
2023-05-08T20:20:42.016Z,3.80
2023-05-08T20:23:08.623Z,4.00
2023-05-08T20:25:35.630Z,3.72
2023-05-08T20:28:02.263Z,4.15
2023-05-08T20:30:29.068Z,3.27
2023-05-08T20:32:56.500Z,3.88
2023-05-08T20:35:23.217Z,3.70
2023-05-08T20:37:49.884Z,3.55
2023-05-08T20:40:16.836Z,4.00
2023-05-08T20:42:43.582Z,3.40
2023-05-08T20:45:11.001Z,3.25
2023-05-08T20:47:37.879Z,3.85
2023-05-08T20:50:05.057Z,3.03
2023-05-08T20:52:32.373Z,2.95
2023-05-08T20:54:59.515Z,3.43
2023-05-08T20:57:26.349Z,3.35
2023-05-08T20:59:53.037Z,3.22
2023-05-08T21:02:19.761Z,3.03
2023-05-08T21:04:46.512Z,3.58
2023-05-08T21:07:13.271Z,3.17
2023-05-08T21:09:39.989Z,2.95
2023-05-08T21:12:07.224Z,3.42
2023-05-08T21:14:35.313Z,3.25
2023-05-08T21:17:02.067Z,3.08
2023-05-08T21:19:31.057Z,4.03
2023-05-08T21:21:57.714Z,3.75
2023-05-08T21:24:25.779Z,3.72
2023-05-08T21:26:53.318Z,3.30
2023-05-08T21:29:20.186Z,3.97
2023-05-08T21:31:46.981Z,3.33
2023-05-08T21:34:14.882Z,3.83
2023-05-08T21:36:41.565Z,3.50
2023-05-08T21:39:08.883Z,3.40
2023-05-08T21:41:35.523Z,3.30
2023-05-08T21:44:02.144Z,3.77
2023-05-08T21:46:28.814Z,3.97
2023-05-08T21:48:55.672Z,4.13
2023-05-08T21:51:22.381Z,4.10
2023-05-08T21:53:49.221Z,4.00
2023-05-08T21:56:16.557Z,3.50
2023-05-08T21:58:43.196Z,4.40
2023-05-08T22:01:09.893Z,3.50
2023-05-08T22:03:36.782Z,4.13
2023-05-08T22:06:03.722Z,3.47
2023-05-08T22:08:30.468Z,4.00
2023-05-08T22:10:57.211Z,3.25
2023-05-08T22:13:23.953Z,3.78
2023-05-08T22:15:50.778Z,3.38
2023-05-08T22:18:18.102Z,4.05
2023-05-08T22:20:44.720Z,4.30
2023-05-08T22:23:11.401Z,3.70
2023-05-08T22:25:38.149Z,4.28
2023-05-08T22:28:09.818Z,3.70
2023-05-08T22:30:36.477Z,3.70
2023-05-08T22:33:03.210Z,3.70
2023-05-08T22:37:58.122Z,3.40
2023-05-08T22:40:25.584Z,3.47
2023-05-08T22:42:53.521Z,3.20
2023-05-08T22:45:20.957Z,3.80
2023-05-08T22:47:47.755Z,3.85
2023-05-08T22:50:14.638Z,3.25
2023-05-08T22:52:41.321Z,3.75
2023-05-08T22:55:08.543Z,3.42
2023-05-08T22:57:35.286Z,3.43
2023-05-08T23:00:02.254Z,2.88
2023-05-08T23:02:33.417Z,3.40
2023-05-08T23:05:00.686Z,3.10
2023-05-08T23:07:28.383Z,3.17
2023-05-08T23:09:55.148Z,3.60
2023-05-08T23:12:21.907Z,3.42
2023-05-08T23:14:48.584Z,3.33
2023-05-08T23:17:15.452Z,3.92
2023-05-08T23:19:42.732Z,3.78
2023-05-08T23:22:09.975Z,3.47
2023-05-08T23:24:36.781Z,4.20
2023-05-08T23:27:03.544Z,3.38
2023-05-08T23:29:30.262Z,3.03
2023-05-08T23:31:56.944Z,3.78
2023-05-08T23:34:23.657Z,3.13
2023-05-08T23:36:50.186Z,3.85
2023-05-08T23:39:16.830Z,3.92
2023-05-08T23:41:43.414Z,4.25
2023-05-08T23:44:10.398Z,4.10
2023-05-08T23:46:37.025Z,3.57
2023-05-08T23:49:05.472Z,4.30
2023-05-08T23:51:32.482Z,4.20
2023-05-08T23:53:59.179Z,3.78
2023-05-08T23:56:26.905Z,3.40
2023-05-08T23:58:53.679Z,4.63
